Time;durP1;ratioP1;P1;durP2;ratioP2;P2;SDS_P1;SDS_P2;PMS_P1;PMS_P2;Temp;Humidity;BMP_temperature;BMP_pressure;BME280_temperature;BME280_humidity;BME280_pressure;Samples;Min_cycle;Max_cycle;Signal;HPM_P1;HPM_P2
2023/06/18 00:01:48;;;;;;;7.43;5.35;;;17.40;90.10;;;;;;5074229;28;20201;-58
2023/06/18 00:04:15;;;;;;;5.72;5.07;;;17.30;90.20;;;;;;5074146;28;20231;-58
2023/06/18 00:06:42;;;;;;;6.20;5.05;;;17.30;90.40;;;;;;5073959;28;20228;-58
2023/06/18 00:09:09;;;;;;;5.32;4.57;;;17.20;90.50;;;;;;5074337;28;20208;-59
2023/06/18 00:11:37;;;;;;;6.53;5.40;;;17.30;90.60;;;;;;5074610;28;20262;-58
2023/06/18 00:14:03;;;;;;;5.65;4.82;;;17.30;90.70;;;;;;5074507;28;20571;-60
2023/06/18 00:16:30;;;;;;;6.40;5.47;;;17.30;90.80;;;;;;5074326;28;20216;-57
2023/06/18 00:18:57;;;;;;;6.03;5.43;;;17.30;90.90;;;;;;5074922;28;20207;-57
2023/06/18 00:21:24;;;;;;;5.32;4.63;;;17.30;91.00;;;;;;5073964;28;20205;-59
2023/06/18 00:23:51;;;;;;;5.95;5.35;;;17.30;91.10;;;;;;5074040;28;20785;-59
2023/06/18 00:26:17;;;;;;;6.25;4.93;;;17.30;91.20;;;;;;5073742;28;20224;-59
2023/06/18 00:28:45;;;;;;;5.82;5.22;;;17.20;91.40;;;;;;5073949;28;20228;-58
2023/06/18 00:31:13;;;;;;;7.43;5.50;;;17.10;91.60;;;;;;5073781;28;20209;-59
2023/06/18 00:33:40;;;;;;;5.68;5.10;;;17.10;91.90;;;;;;5073507;28;20229;-57
2023/06/18 00:36:08;;;;;;;6.32;5.40;;;17.10;91.90;;;;;;5073413;28;20701;-57
2023/06/18 00:38:37;;;;;;;7.70;5.03;;;17.10;92.00;;;;;;5073605;28;20313;-57
2023/06/18 00:41:03;;;;;;;7.20;5.13;;;17.00;92.10;;;;;;5073669;28;20251;-58
2023/06/18 00:43:31;;;;;;;6.60;5.55;;;16.90;92.40;;;;;;5073533;28;20291;-59
2023/06/18 00:46:00;;;;;;;6.97;5.35;;;16.90;92.60;;;;;;5073264;28;20208;-58
2023/06/18 00:48:27;;;;;;;6.00;5.40;;;16.90;92.60;;;;;;5073263;28;20236;-60
2023/06/18 00:50:54;;;;;;;7.40;5.20;;;16.90;92.80;;;;;;5073394;28;20681;-58
2023/06/18 00:53:21;;;;;;;6.65;5.22;;;16.90;93.00;;;;;;5073347;28;20232;-58
2023/06/18 00:55:48;;;;;;;5.47;4.97;;;16.80;93.10;;;;;;5073086;28;20209;-56
2023/06/18 00:58:15;;;;;;;6.88;5.40;;;16.80;93.30;;;;;;5073356;28;20630;-59
2023/06/18 01:00:43;;;;;;;6.28;5.03;;;16.80;93.40;;;;;;5073268;28;20200;-58
2023/06/18 01:03:16;;;;;;;5.80;5.15;;;16.80;93.50;;;;;;5072651;28;20225;-56
2023/06/18 01:05:45;;;;;;;6.80;5.10;;;16.80;93.70;;;;;;5072984;28;20212;-59
2023/06/18 01:08:13;;;;;;;7.55;5.07;;;16.80;93.80;;;;;;5072879;28;20221;-58
2023/06/18 01:10:41;;;;;;;5.97;5.35;;;16.70;93.60;;;;;;5072822;28;20227;-58
2023/06/18 01:13:09;;;;;;;6.95;5.00;;;16.80;93.70;;;;;;5072853;28;20447;-59
2023/06/18 01:15:35;;;;;;;7.30;5.45;;;16.80;93.70;;;;;;5072851;28;20291;-58
2023/06/18 01:18:06;;;;;;;5.78;5.13;;;16.80;93.90;;;;;;5072459;28;20681;-58
2023/06/18 01:20:40;;;;;;;5.68;5.05;;;16.70;94.10;;;;;;5073076;28;20209;-58
2023/06/18 01:23:17;;;;;;;7.95;5.63;;;16.70;94.20;;;;;;5072535;28;20215;-58
2023/06/18 01:25:46;;;;;;;6.50;4.88;;;16.60;94.50;;;;;;5072872;28;20235;-57
2023/06/18 01:28:15;;;;;;;7.25;5.68;;;16.50;94.80;;;;;;5072406;28;20248;-59
2023/06/18 01:30:42;;;;;;;6.70;4.80;;;16.50;94.80;;;;;;5072660;28;20556;-58
2023/06/18 01:33:12;;;;;;;7.22;5.07;;;16.60;94.80;;;;;;5072469;28;20331;-59
2023/06/18 01:35:41;;;;;;;5.82;5.22;;;16.60;94.90;;;;;;5072571;28;20296;-57
2023/06/18 01:38:34;;;;;;;6.05;5.45;;;16.60;95.30;;;;;;5072304;28;20690;-58
2023/06/18 01:41:09;;;;;;;8.45;5.70;;;16.50;95.60;;;;;;5058238;28;20236;-59
2023/06/18 01:43:41;;;;;;;5.75;5.15;;;16.50;95.90;;;;;;5072067;28;20716;-59
2023/06/18 01:46:10;;;;;;;6.55;5.82;;;16.40;96.40;;;;;;5071817;28;20698;-58
2023/06/18 01:48:40;;;;;;;7.45;5.70;;;16.40;96.40;;;;;;5072540;28;20201;-57
2023/06/18 01:51:09;;;;;;;7.10;5.60;;;16.30;96.50;;;;;;5072152;28;20224;-59
2023/06/18 01:53:38;;;;;;;7.28;5.35;;;16.30;96.70;;;;;;5072247;28;20225;-58
2023/06/18 01:56:09;;;;;;;5.68;5.00;;;16.30;97.00;;;;;;5071897;28;20215;-58
2023/06/18 01:58:36;;;;;;;7.53;5.15;;;16.30;97.10;;;;;;5072300;28;20672;-58
2023/06/18 02:01:03;;;;;;;6.85;5.55;;;16.30;97.20;;;;;;5071788;28;20690;-58
2023/06/18 02:03:30;;;;;;;5.90;5.30;;;16.30;97.30;;;;;;5071962;28;20713;-58
2023/06/18 02:05:56;;;;;;;7.30;5.47;;;16.30;97.40;;;;;;5071765;28;20694;-58
2023/06/18 02:08:26;;;;;;;6.70;5.50;;;16.30;97.50;;;;;;5071771;28;20232;-58
2023/06/18 02:10:53;;;;;;;8.75;5.65;;;16.20;97.60;;;;;;5071823;28;20620;-58
2023/06/18 02:13:19;;;;;;;5.75;5.22;;;16.30;97.70;;;;;;5071259;28;20225;-56
2023/06/18 02:15:46;;;;;;;6.13;4.97;;;16.30;97.70;;;;;;5071245;28;20208;-58
2023/06/18 02:18:13;;;;;;;7.00;5.30;;;16.30;97.70;;;;;;5071890;28;20201;-58
2023/06/18 02:20:40;;;;;;;5.70;5.18;;;16.30;97.80;;;;;;5071841;28;20212;-56
2023/06/18 02:23:06;;;;;;;5.95;5.35;;;16.30;97.90;;;;;;5071433;28;20206;-58
2023/06/18 02:25:35;;;;;;;8.98;5.68;;;16.20;97.80;;;;;;5071572;28;20209;-58
2023/06/18 02:28:02;;;;;;;7.40;6.22;;;16.20;97.90;;;;;;5071250;28;20229;-57
2023/06/18 02:30:29;;;;;;;7.57;6.17;;;16.20;98.10;;;;;;5071572;28;20197;-58
2023/06/18 02:32:56;;;;;;;5.93;5.32;;;16.20;98.30;;;;;;5071549;28;20243;-58
2023/06/18 02:35:23;;;;;;;8.80;6.35;;;16.20;98.60;;;;;;5071542;28;20216;-58
2023/06/18 02:37:50;;;;;;;7.70;5.55;;;16.20;98.70;;;;;;5071325;28;20450;-59
2023/06/18 02:40:16;;;;;;;8.20;5.82;;;16.20;98.80;;;;;;5071325;28;20212;-59
2023/06/18 02:42:48;;;;;;;6.32;5.38;;;16.10;99.10;;;;;;5071200;28;20636;-59
2023/06/18 02:45:16;;;;;;;7.35;5.28;;;16.10;99.30;;;;;;5071082;28;20661;-61
2023/06/18 02:47:43;;;;;;;6.30;5.70;;;16.10;99.40;;;;;;5070782;28;20598;-59
2023/06/18 02:50:10;;;;;;;5.75;5.18;;;16.00;99.50;;;;;;5071427;28;20209;-58
2023/06/18 02:52:37;;;;;;;7.60;5.53;;;16.00;99.70;;;;;;5071381;28;20207;-59
2023/06/18 02:55:04;;;;;;;5.93;5.32;;;16.00;99.70;;;;;;5071080;28;20229;-57
2023/06/18 02:57:31;;;;;;;8.60;5.72;;;16.00;99.90;;;;;;5071126;28;20230;-58
2023/06/18 02:59:59;;;;;;;6.57;5.53;;;16.00;99.90;;;;;;5071200;28;20286;-58
2023/06/18 03:02:26;;;;;;;7.93;6.30;;;15.90;99.90;;;;;;5071031;28;20236;-58
2023/06/18 03:04:53;;;;;;;6.40;5.60;;;15.90;99.90;;;;;;5071264;28;20231;-59
2023/06/18 03:07:20;;;;;;;5.43;4.93;;;15.80;99.90;;;;;;5070614;28;20574;-58
2023/06/18 03:09:46;;;;;;;6.13;5.28;;;15.80;99.90;;;;;;5070960;28;20270;-59
2023/06/18 03:12:13;;;;;;;6.00;5.35;;;15.60;99.90;;;;;;5070822;28;20207;-58
2023/06/18 03:14:40;;;;;;;6.97;5.43;;;15.60;99.90;;;;;;5071214;28;20225;-59
2023/06/18 03:17:08;;;;;;;9.20;5.83;;;15.50;99.90;;;;;;5070778;28;20285;-58
2023/06/18 03:19:35;;;;;;;8.55;5.75;;;15.40;99.90;;;;;;5071099;28;20413;-59
2023/06/18 03:22:03;;;;;;;6.75;6.05;;;15.40;99.90;;;;;;5070804;28;20213;-58
2023/06/18 03:24:29;;;;;;;5.90;5.30;;;15.30;99.90;;;;;;5070615;28;20237;-59
2023/06/18 03:26:57;;;;;;;7.22;5.57;;;15.30;99.90;;;;;;5074002;28;20725;-59
2023/06/18 03:29:24;;;;;;;6.77;5.17;;;15.20;99.90;;;;;;5074972;28;20201;-59
2023/06/18 03:31:51;;;;;;;7.57;5.45;;;15.10;99.90;;;;;;5074858;28;20204;-57
2023/06/18 03:34:20;;;;;;;7.93;6.20;;;15.00;99.90;;;;;;5074846;28;20229;-59
2023/06/18 03:36:48;;;;;;;6.47;4.93;;;15.00;99.90;;;;;;5074513;28;20204;-57
2023/06/18 03:39:15;;;;;;;7.97;5.87;;;14.90;99.90;;;;;;5074852;28;20216;-59
2023/06/18 03:41:43;;;;;;;6.23;5.10;;;15.00;99.90;;;;;;5074957;28;20204;-58
2023/06/18 03:44:09;;;;;;;6.30;5.50;;;15.10;99.90;;;;;;5074784;28;20225;-57
2023/06/18 03:46:37;;;;;;;9.30;5.50;;;15.10;99.90;;;;;;5074324;28;20204;-58
2023/06/18 03:49:03;;;;;;;7.67;5.67;;;15.20;99.90;;;;;;5074387;28;20224;-58
2023/06/18 03:51:31;;;;;;;6.93;6.00;;;15.30;99.90;;;;;;5074869;28;20586;-57
2023/06/18 03:53:58;;;;;;;11.10;5.73;;;15.30;99.90;;;;;;5074475;28;20273;-58
2023/06/18 03:56:25;;;;;;;7.80;5.20;;;15.40;99.90;;;;;;5074336;28;20243;-58
2023/06/18 03:58:52;;;;;;;7.13;5.50;;;15.40;99.90;;;;;;5074773;28;20209;-58
2023/06/18 04:01:19;;;;;;;5.75;5.20;;;15.50;99.90;;;;;;5074490;28;20322;-58
2023/06/18 04:03:45;;;;;;;6.83;5.10;;;15.60;99.90;;;;;;5074713;28;20225;-59
2023/06/18 04:06:12;;;;;;;8.38;5.40;;;15.70;99.90;;;;;;5073922;28;20708;-58
2023/06/18 04:08:41;;;;;;;5.97;5.20;;;15.80;99.90;;;;;;5074119;28;20225;-58
2023/06/18 04:11:08;;;;;;;6.60;5.13;;;15.90;99.90;;;;;;5074171;28;20205;-59
2023/06/18 04:13:36;;;;;;;7.13;5.07;;;16.00;99.90;;;;;;5074317;28;20231;-59
2023/06/18 04:16:03;;;;;;;6.13;5.32;;;15.90;99.90;;;;;;5073901;28;20231;-59
2023/06/18 04:18:30;;;;;;;5.93;5.32;;;15.90;99.90;;;;;;5074366;28;20255;-60
2023/06/18 04:20:56;;;;;;;6.40;5.55;;;16.00;99.90;;;;;;5074155;28;20296;-57
2023/06/18 04:23:23;;;;;;;8.20;5.40;;;16.00;99.90;;;;;;5074037;28;20243;-58
2023/06/18 04:25:51;;;;;;;9.27;5.70;;;16.10;99.90;;;;;;5073898;28;20311;-59
2023/06/18 04:28:18;;;;;;;5.75;5.13;;;16.10;99.90;;;;;;5073854;28;20221;-59
2023/06/18 04:30:44;;;;;;;6.88;5.40;;;16.20;99.90;;;;;;5073808;28;20216;-59
2023/06/18 04:33:11;;;;;;;5.97;5.37;;;16.20;99.90;;;;;;5073757;28;20232;-59
2023/06/18 04:35:38;;;;;;;7.47;5.55;;;16.20;99.90;;;;;;5073553;28;20207;-57
2023/06/18 04:38:04;;;;;;;5.68;5.10;;;16.30;99.90;;;;;;5072690;28;20208;-58
2023/06/18 04:40:31;;;;;;;5.72;5.13;;;16.40;99.90;;;;;;5073490;28;20208;-59
2023/06/18 04:43:00;;;;;;;7.88;5.57;;;16.70;99.90;;;;;;5073531;28;20209;-58
2023/06/18 04:45:26;;;;;;;5.88;5.38;;;16.90;99.90;;;;;;5073489;28;20244;-59
2023/06/18 04:47:53;;;;;;;6.30;5.38;;;17.60;99.90;;;;;;5073012;28;20220;-57
2023/06/18 04:50:20;;;;;;;5.65;5.13;;;18.70;97.90;;;;;;5073819;28;20212;-58
2023/06/18 04:52:46;;;;;;;5.85;4.90;;;20.00;94.80;;;;;;5073544;28;20204;-59
2023/06/18 04:55:13;;;;;;;8.85;4.53;;;21.30;91.70;;;;;;5073045;28;20713;-57
2023/06/18 04:57:40;;;;;;;6.22;4.72;;;22.40;87.80;;;;;;5073145;28;20233;-58
2023/06/18 05:00:09;;;;;;;5.63;4.60;;;23.20;83.10;;;;;;5073180;28;20219;-59
2023/06/18 05:02:36;;;;;;;9.45;4.88;;;23.90;79.90;;;;;;5073150;28;20207;-58
2023/06/18 05:05:03;;;;;;;5.55;5.00;;;24.60;76.00;;;;;;5073179;28;20228;-58
2023/06/18 05:07:30;;;;;;;4.95;4.50;;;25.40;73.30;;;;;;5072740;28;20235;-58
2023/06/18 05:09:57;;;;;;;6.43;5.10;;;26.00;70.70;;;;;;5073047;28;20212;-58
2023/06/18 05:12:24;;;;;;;6.45;4.90;;;26.60;68.00;;;;;;5072840;28;20213;-58
2023/06/18 05:14:50;;;;;;;5.07;4.53;;;27.20;66.50;;;;;;5072871;28;20233;-58
2023/06/18 05:17:18;;;;;;;5.53;4.90;;;27.80;63.60;;;;;;5072670;28;20235;-58
2023/06/18 05:19:45;;;;;;;5.63;5.10;;;28.40;61.90;;;;;;5073247;28;20596;-59
2023/06/18 05:22:12;;;;;;;5.47;4.97;;;29.00;60.20;;;;;;5073005;28;20216;-57
2023/06/18 05:24:39;;;;;;;6.00;4.50;;;29.30;58.50;;;;;;5072521;28;20263;-58
2023/06/18 05:27:07;;;;;;;4.95;4.45;;;29.20;58.60;;;;;;5072626;28;20201;-58
2023/06/18 05:29:33;;;;;;;5.18;4.68;;;29.40;57.90;;;;;;5072486;28;20224;-58
2023/06/18 05:32:00;;;;;;;5.10;4.60;;;29.50;57.00;;;;;;5072825;28;20205;-58
2023/06/18 05:34:28;;;;;;;5.10;4.60;;;29.60;56.90;;;;;;5073050;28;20236;-58
2023/06/18 05:36:55;;;;;;;6.03;4.82;;;29.60;57.10;;;;;;5072259;28;20781;-58
2023/06/18 05:39:22;;;;;;;5.15;4.65;;;29.40;56.70;;;;;;5072477;28;20414;-59
2023/06/18 05:41:50;;;;;;;7.75;5.00;;;29.20;57.00;;;;;;5072521;28;20678;-58
2023/06/18 05:44:17;;;;;;;7.60;6.68;;;29.00;57.10;;;;;;5072206;28;20636;-58
2023/06/18 05:46:43;;;;;;;5.43;4.70;;;28.70;57.60;;;;;;5072315;28;20255;-58
2023/06/18 05:49:10;;;;;;;5.68;4.60;;;28.50;57.80;;;;;;5072193;28;20228;-59
2023/06/18 05:51:38;;;;;;;7.72;4.50;;;28.50;57.90;;;;;;5072581;28;20209;-58
2023/06/18 05:54:05;;;;;;;5.00;4.50;;;28.70;57.30;;;;;;5071965;28;20733;-58
2023/06/18 05:56:32;;;;;;;5.10;4.57;;;29.00;57.10;;;;;;5071934;28;20208;-59
2023/06/18 05:58:59;;;;;;;5.70;4.60;;;29.20;56.40;;;;;;5072064;28;20709;-57
2023/06/18 06:01:25;;;;;;;6.00;4.80;;;29.90;55.60;;;;;;5072611;28;20216;-60
2023/06/18 06:03:52;;;;;;;6.63;4.70;;;30.40;54.60;;;;;;5072122;28;20229;-58
2023/06/18 06:06:19;;;;;;;6.47;4.40;;;31.00;53.80;;;;;;5071560;28;20687;-58
2023/06/18 06:08:47;;;;;;;5.63;4.72;;;31.50;52.80;;;;;;5072073;28;20221;-59
2023/06/18 06:11:14;;;;;;;5.28;4.72;;;32.00;51.60;;;;;;5071826;28;20211;-58
2023/06/18 06:13:41;;;;;;;5.35;4.40;;;32.30;50.70;;;;;;5071673;28;20268;-57
2023/06/18 06:16:08;;;;;;;7.38;5.00;;;32.60;50.10;;;;;;5071675;28;20205;-58
2023/06/18 06:18:34;;;;;;;7.30;4.85;;;33.00;49.10;;;;;;5071826;28;20201;-58
2023/06/18 06:21:01;;;;;;;5.43;4.75;;;33.30;48.40;;;;;;5071749;28;20207;-57
2023/06/18 06:23:28;;;;;;;7.97;4.30;;;33.60;47.90;;;;;;5071647;28;20240;-58
2023/06/18 06:25:56;;;;;;;4.78;4.38;;;33.90;47.10;;;;;;5071745;28;20571;-57
2023/06/18 06:28:23;;;;;;;5.55;4.70;;;34.50;46.10;;;;;;5071541;28;20221;-58
2023/06/18 06:30:50;;;;;;;5.15;4.60;;;35.10;45.50;;;;;;5071548;28;20693;-57
2023/06/18 06:33:16;;;;;;;4.85;4.35;;;35.80;44.50;;;;;;5071722;28;20278;-58
2023/06/18 06:35:43;;;;;;;6.60;4.20;;;36.50;43.20;;;;;;5071510;28;20205;-57
2023/06/18 06:38:10;;;;;;;4.68;4.20;;;36.70;43.30;;;;;;5071508;28;20211;-57
2023/06/18 06:40:37;;;;;;;7.03;4.63;;;36.90;42.70;;;;;;5071433;28;20296;-57
2023/06/18 06:43:06;;;;;;;5.40;4.60;;;37.40;42.00;;;;;;5071559;28;20215;-56
2023/06/18 06:45:32;;;;;;;4.78;4.30;;;37.60;41.40;;;;;;5071648;28;20208;-58
2023/06/18 06:47:59;;;;;;;6.93;4.22;;;37.60;40.30;;;;;;5070873;28;20209;-58
2023/06/18 06:50:26;;;;;;;4.38;3.85;;;37.50;40.80;;;;;;5071290;28;20556;-57
2023/06/18 06:52:53;;;;;;;6.15;4.28;;;37.50;40.30;;;;;;5071231;28;20209;-57
2023/06/18 06:55:19;;;;;;;4.65;4.15;;;37.40;40.00;;;;;;5071550;28;20483;-57
2023/06/18 06:57:46;;;;;;;4.68;4.28;;;37.40;39.80;;;;;;5071188;28;20208;-59
2023/06/18 07:00:16;;;;;;;4.50;3.97;;;37.80;39.20;;;;;;5070864;28;20209;-57
2023/06/18 07:02:42;;;;;;;6.35;4.22;;;38.20;38.60;;;;;;5071218;28;20213;-56
2023/06/18 07:05:10;;;;;;;4.65;4.22;;;38.50;37.90;;;;;;5071078;28;20714;-56
2023/06/18 07:07:37;;;;;;;6.22;4.00;;;38.80;37.70;;;;;;5070934;28;20205;-56
2023/06/18 07:10:05;;;;;;;4.38;3.97;;;38.70;37.60;;;;;;5071312;28;20232;-57
2023/06/18 07:12:31;;;;;;;4.25;3.72;;;38.60;37.80;;;;;;5071292;28;20303;-57
2023/06/18 07:14:58;;;;;;;4.82;4.10;;;38.60;37.50;;;;;;5071421;28;20267;-57
2023/06/18 07:17:26;;;;;;;5.15;4.32;;;39.00;37.20;;;;;;5070785;28;20625;-56
2023/06/18 07:19:54;;;;;;;6.85;4.25;;;39.50;37.00;;;;;;5071380;28;20201;-57
2023/06/18 07:22:21;;;;;;;5.15;4.10;;;39.90;36.50;;;;;;5071188;28;20558;-57
2023/06/18 07:24:48;;;;;;;4.55;4.15;;;40.30;36.10;;;;;;5099432;22;20314;-60
2023/06/18 07:27:15;;;;;;;5.93;4.13;;;40.90;36.00;;;;;;5082181;28;20204;-61
2023/06/18 07:29:43;;;;;;;4.95;4.47;;;41.40;35.00;;;;;;5091041;28;20224;-62
2023/06/18 07:32:09;;;;;;;4.72;4.20;;;41.60;35.00;;;;;;5091080;28;20199;-62
2023/06/18 07:34:37;;;;;;;4.55;4.15;;;41.90;34.50;;;;;;5090804;28;20223;-62
2023/06/18 07:37:04;;;;;;;4.20;3.80;;;41.90;34.60;;;;;;5090781;28;20626;-62
2023/06/18 07:39:31;;;;;;;4.53;4.13;;;42.20;34.70;;;;;;5090745;28;20680;-60
2023/06/18 07:41:58;;;;;;;8.75;4.00;;;42.20;34.60;;;;;;5090856;28;20204;-61
2023/06/18 07:44:25;;;;;;;6.75;4.07;;;41.90;34.90;;;;;;5090572;28;20318;-62
2023/06/18 07:46:52;;;;;;;4.70;4.18;;;42.10;34.20;;;;;;5090451;28;20662;-61
2023/06/18 07:49:20;;;;;;;4.47;3.92;;;42.50;34.10;;;;;;5090388;28;20598;-62
2023/06/18 07:51:49;;;;;;;5.55;4.43;;;42.60;33.90;;;;;;5091186;28;20203;-62
2023/06/18 07:54:15;;;;;;;5.72;4.32;;;42.60;34.30;;;;;;5090685;28;20919;-63
2023/06/18 07:56:42;;;;;;;5.00;4.15;;;42.80;33.60;;;;;;5090565;28;20582;-62
2023/06/18 07:59:10;;;;;;;4.70;4.28;;;42.40;34.10;;;;;;5090925;28;20294;-62
2023/06/18 08:01:36;;;;;;;4.82;4.20;;;41.80;34.60;;;;;;5090573;28;20623;-62
2023/06/18 08:04:03;;;;;;;5.00;4.18;;;41.50;35.10;;;;;;5090961;28;20227;-62
2023/06/18 08:06:30;;;;;;;4.63;3.70;;;41.70;35.20;;;;;;5090659;28;20208;-62
2023/06/18 08:08:58;;;;;;;5.07;4.00;;;41.40;35.00;;;;;;5090526;28;20245;-62
2023/06/18 08:11:25;;;;;;;5.63;4.70;;;41.40;35.00;;;;;;5090655;28;20257;-62
2023/06/18 08:13:52;;;;;;;5.03;4.07;;;41.20;35.30;;;;;;5093858;28;20255;-62
2023/06/18 08:16:19;;;;;;;4.93;4.43;;;41.70;35.00;;;;;;5093859;28;20636;-63
2023/06/18 08:18:46;;;;;;;6.75;3.95;;;42.40;34.30;;;;;;5094773;28;20203;-60
2023/06/18 08:21:13;;;;;;;4.30;3.97;;;43.10;33.60;;;;;;5094018;28;20673;-60
2023/06/18 08:23:39;;;;;;;4.38;4.03;;;43.70;33.50;;;;;;5093922;28;20207;-61
2023/06/18 08:26:07;;;;;;;4.45;3.85;;;44.10;33.80;;;;;;5094012;28;20204;-62
2023/06/18 08:28:34;;;;;;;6.95;3.90;;;44.40;32.70;;;;;;5093814;28;20319;-61
2023/06/18 08:31:00;;;;;;;4.28;3.88;;;44.70;32.00;;;;;;5093751;28;20645;-61
2023/06/18 08:33:27;;;;;;;4.88;3.92;;;45.00;31.50;;;;;;5093998;28;20207;-61
2023/06/18 08:35:54;;;;;;;5.65;3.80;;;45.10;31.60;;;;;;5093500;28;20235;-61
2023/06/18 08:38:21;;;;;;;4.25;3.92;;;45.10;31.20;;;;;;5093691;28;20207;-61
2023/06/18 08:40:52;;;;;;;3.88;3.58;;;44.70;31.30;;;;;;5093622;28;20210;-61
2023/06/18 08:43:22;;;;;;;4.88;3.88;;;44.20;31.00;;;;;;5093489;28;20214;-61
2023/06/18 08:45:52;;;;;;;5.53;3.95;;;43.60;31.60;;;;;;5093550;28;20603;-61
2023/06/18 08:48:24;;;;;;;4.22;3.80;;;43.50;31.70;;;;;;5093867;28;20231;-61
2023/06/18 08:50:57;;;;;;;4.95;3.90;;;43.50;31.50;;;;;;5093689;28;20199;-61
2023/06/18 08:53:31;;;;;;;6.05;4.13;;;43.00;30.70;;;;;;5093675;28;20204;-61
2023/06/18 08:55:58;;;;;;;4.25;3.83;;;41.90;30.70;;;;;;5093198;28;20212;-62
2023/06/18 08:58:27;;;;;;;5.18;3.55;;;40.20;31.30;;;;;;5093390;28;20208;-61
2023/06/18 09:00:54;;;;;;;5.00;4.18;;;38.60;32.10;;;;;;5093369;28;20204;-60
2023/06/18 09:03:21;;;;;;;4.43;4.03;;;36.90;33.40;;;;;;5093458;28;20216;-60
2023/06/18 09:05:48;;;;;;;6.30;4.30;;;35.80;34.40;;;;;;5092931;28;20228;-60
2023/06/18 09:08:15;;;;;;;4.82;4.32;;;34.80;35.40;;;;;;5093267;28;20204;-60
2023/06/18 09:10:42;;;;;;;5.82;4.00;;;34.10;36.90;;;;;;5093113;28;20637;-62
2023/06/18 09:13:09;;;;;;;4.82;4.40;;;33.70;37.40;;;;;;5093100;28;20208;-61
2023/06/18 09:15:37;;;;;;;7.28;4.25;;;33.30;37.40;;;;;;5093089;28;20235;-60
2023/06/18 09:18:04;;;;;;;4.88;4.25;;;32.90;37.60;;;;;;5093242;28;20208;-60
2023/06/18 09:20:33;;;;;;;4.63;4.20;;;32.70;37.90;;;;;;5093013;28;20625;-60
2023/06/18 09:23:10;;;;;;;4.53;3.80;;;32.20;37.40;;;;;;5082076;28;20197;-63
2023/06/18 09:25:37;;;;;;;5.72;4.30;;;31.90;37.70;;;;;;5068653;28;20782;-64
2023/06/18 09:28:04;;;;;;;5.93;4.22;;;31.90;38.20;;;;;;5072350;28;20212;-62
2023/06/18 09:30:31;;;;;;;4.82;4.30;;;31.70;38.30;;;;;;5072912;28;20609;-64
2023/06/18 09:33:00;;;;;;;4.43;4.00;;;31.50;38.30;;;;;;5072240;28;20227;-63
2023/06/18 09:35:27;;;;;;;5.25;4.15;;;31.20;38.50;;;;;;5072250;28;20330;-62
2023/06/18 09:37:54;;;;;;;4.93;4.15;;;31.10;38.80;;;;;;5071749;28;20213;-62
2023/06/18 09:40:22;;;;;;;6.13;4.00;;;31.00;38.90;;;;;;5072205;28;20220;-61
2023/06/18 09:42:50;;;;;;;5.97;4.38;;;30.90;39.00;;;;;;5072321;28;20205;-61
2023/06/18 09:45:18;;;;;;;5.88;4.28;;;30.80;39.50;;;;;;5072770;28;20294;-65
2023/06/18 09:47:47;;;;;;;4.55;4.15;;;30.70;39.40;;;;;;5071766;28;20201;-61
2023/06/18 09:50:15;;;;;;;4.75;4.30;;;30.80;39.50;;;;;;5072042;28;20224;-61
2023/06/18 09:52:43;;;;;;;6.35;4.45;;;30.70;39.40;;;;;;5072099;28;20242;-62
2023/06/18 09:55:26;;;;;;;7.00;4.20;;;30.80;39.50;;;;;;5072148;28;20320;-62
2023/06/18 09:57:52;;;;;;;6.68;4.50;;;30.80;39.20;;;;;;5071445;28;20650;-61
2023/06/18 10:00:20;;;;;;;4.50;4.10;;;30.80;39.50;;;;;;5071789;28;20208;-63
2023/06/18 10:02:47;;;;;;;4.88;4.30;;;30.80;39.50;;;;;;5072039;28;20212;-62
2023/06/18 10:05:15;;;;;;;5.10;4.30;;;30.80;39.20;;;;;;5071833;28;20221;-62
2023/06/18 10:07:43;;;;;;;4.35;3.92;;;30.90;38.80;;;;;;5071947;28;20259;-64
2023/06/18 10:10:14;;;;;;;4.55;4.00;;;30.90;38.30;;;;;;5071787;28;20228;-64
2023/06/18 10:12:43;;;;;;;5.10;4.20;;;30.90;38.30;;;;;;5071683;28;20678;-61
2023/06/18 10:15:11;;;;;;;4.10;3.72;;;30.90;37.70;;;;;;5071347;28;20221;-62
2023/06/18 10:17:41;;;;;;;8.02;4.07;;;30.80;39.60;;;;;;5070963;28;20286;-63
2023/06/18 10:20:09;;;;;;;4.93;3.80;;;30.90;38.90;;;;;;5071565;28;20236;-62
2023/06/18 10:22:42;;;;;;;4.78;4.28;;;30.90;38.60;;;;;;5067978;28;20212;-61
2023/06/18 10:25:09;;;;;;;4.38;3.97;;;31.10;39.10;;;;;;5069217;28;20232;-60
2023/06/18 10:27:36;;;;;;;4.57;3.97;;;31.20;38.90;;;;;;5070973;28;20642;-59
2023/06/18 10:30:04;;;;;;;4.95;4.45;;;31.20;38.90;;;;;;5070682;28;20225;-59
2023/06/18 10:32:33;;;;;;;5.35;3.88;;;31.20;38.60;;;;;;5070881;28;20259;-59
2023/06/18 10:35:01;;;;;;;4.13;3.75;;;31.20;38.90;;;;;;5070375;28;20221;-60
2023/06/18 10:37:30;;;;;;;6.53;3.90;;;31.10;38.90;;;;;;5070685;28;20642;-61
2023/06/18 10:39:59;;;;;;;5.32;4.20;;;31.10;39.60;;;;;;5069427;28;20209;-62
2023/06/18 10:42:26;;;;;;;8.15;4.65;;;31.10;39.70;;;;;;5069497;28;20281;-63
2023/06/18 10:44:57;;;;;;;8.05;6.22;;;31.10;39.00;;;;;;5067210;28;20718;-65
2023/06/18 10:47:25;;;;;;;6.65;5.45;;;31.30;38.60;;;;;;5070497;28;20275;-63
2023/06/18 10:50:12;;;;;;;7.30;4.40;;;31.50;38.40;;;;;;5070399;28;20599;-61
2023/06/18 10:52:40;;;;;;;4.95;3.90;;;31.80;38.20;;;;;;5050425;28;20209;-61
2023/06/18 10:55:10;;;;;;;6.22;3.90;;;31.90;38.30;;;;;;5050904;28;20709;-61
2023/06/18 10:57:37;;;;;;;5.25;4.43;;;31.80;38.20;;;;;;5050483;28;20693;-60
2023/06/18 11:00:18;;;;;;;4.65;4.20;;;31.70;38.10;;;;;;5065917;28;20224;-62
2023/06/18 11:02:46;;;;;;;5.75;4.85;;;31.60;38.10;;;;;;5071612;28;20698;-61
2023/06/18 11:05:16;;;;;;;4.28;3.88;;;31.50;38.50;;;;;;5070614;28;20225;-60
2023/06/18 11:07:43;;;;;;;6.50;5.22;;;31.40;38.80;;;;;;5071345;28;20229;-60
2023/06/18 11:10:12;;;;;;;4.45;3.97;;;31.40;39.20;;;;;;5070964;28;20580;-61
2023/06/18 11:12:39;;;;;;;5.03;4.38;;;31.50;39.20;;;;;;5071762;28;20279;-62
2023/06/18 11:15:15;;;;;;;7.00;4.35;;;31.60;38.90;;;;;;5071348;28;20256;-63
2023/06/18 11:17:43;;;;;;;5.93;4.25;;;31.80;38.80;;;;;;5069406;28;20204;-62
2023/06/18 11:20:12;;;;;;;5.60;4.18;;;31.80;39.00;;;;;;5070296;28;20526;-63
2023/06/18 11:22:40;;;;;;;4.47;3.70;;;31.80;38.50;;;;;;5071363;28;20288;-62
2023/06/18 11:25:09;;;;;;;4.95;4.45;;;31.80;38.60;;;;;;5071214;28;20272;-62
2023/06/18 11:27:40;;;;;;;4.72;4.15;;;31.70;38.90;;;;;;5070970;28;20255;-64
2023/06/18 11:30:08;;;;;;;4.45;4.03;;;31.80;39.60;;;;;;5070410;28;20225;-63
2023/06/18 11:32:35;;;;;;;5.25;3.90;;;32.00;38.20;;;;;;5070859;28;20274;-63
2023/06/18 11:35:05;;;;;;;5.07;3.67;;;32.20;38.10;;;;;;5070890;28;20224;-62
2023/06/18 11:37:32;;;;;;;4.53;4.13;;;32.20;37.90;;;;;;5070905;28;20208;-62
2023/06/18 11:39:58;;;;;;;4.40;4.00;;;32.10;37.90;;;;;;5070649;28;20205;-62
2023/06/18 11:42:27;;;;;;;4.57;3.70;;;32.10;37.70;;;;;;5070475;28;20246;-62
2023/06/18 11:45:01;;;;;;;5.82;3.97;;;32.10;37.90;;;;;;5070749;28;20356;-62
2023/06/18 11:47:28;;;;;;;6.72;3.83;;;32.10;37.90;;;;;;5073474;28;20217;-61
2023/06/18 11:49:55;;;;;;;4.95;4.25;;;32.00;38.10;;;;;;5075092;28;20221;-63
2023/06/18 11:52:23;;;;;;;4.50;4.05;;;32.00;38.00;;;;;;5075123;28;20543;-63
2023/06/18 11:54:50;;;;;;;5.40;3.75;;;32.00;38.00;;;;;;5074306;28;20651;-62
2023/06/18 11:57:19;;;;;;;5.25;4.05;;;32.00;38.20;;;;;;5073780;28;20216;-61
2023/06/18 11:59:47;;;;;;;6.30;4.00;;;32.00;38.00;;;;;;5074542;28;20231;-61
2023/06/18 12:02:17;;;;;;;4.13;3.58;;;32.10;37.50;;;;;;5074804;28;20204;-62
2023/06/18 12:04:45;;;;;;;5.18;4.18;;;32.10;38.00;;;;;;5074752;28;20224;-60
2023/06/18 12:07:16;;;;;;;4.25;3.85;;;32.20;38.40;;;;;;5073623;28;20208;-61
2023/06/18 12:09:43;;;;;;;4.45;3.53;;;32.20;37.60;;;;;;5073923;28;20244;-62
2023/06/18 12:12:20;;;;;;;6.00;4.00;;;32.30;37.90;;;;;;5074008;28;20208;-67
2023/06/18 12:14:56;;;;;;;5.35;3.83;;;32.30;37.60;;;;;;5074304;28;20327;-64
2023/06/18 12:17:32;;;;;;;4.15;3.80;;;32.50;37.60;;;;;;5073913;28;20200;-62
2023/06/18 12:20:04;;;;;;;4.45;3.80;;;32.50;37.50;;;;;;5073806;28;20212;-60
2023/06/18 12:22:32;;;;;;;5.10;3.90;;;32.60;37.90;;;;;;5074306;28;20258;-62
2023/06/18 12:24:59;;;;;;;5.32;3.90;;;32.70;37.70;;;;;;5074560;28;20245;-62
2023/06/18 12:27:26;;;;;;;4.47;3.83;;;32.80;37.20;;;;;;5074259;28;20212;-61
2023/06/18 12:29:53;;;;;;;5.82;4.40;;;32.80;37.10;;;;;;5073773;28;20217;-59
2023/06/18 12:32:20;;;;;;;3.97;3.65;;;32.80;37.50;;;;;;5073642;28;20209;-59
2023/06/18 12:34:48;;;;;;;6.10;3.97;;;32.90;37.40;;;;;;5073154;28;20599;-61
2023/06/18 12:37:15;;;;;;;4.40;4.00;;;33.00;37.20;;;;;;5073213;28;20209;-62
2023/06/18 12:40:09;;;;;;;4.47;4.07;;;33.00;37.20;;;;;;5073240;28;20216;-62
2023/06/18 12:42:36;;;;;;;4.20;3.80;;;32.90;37.30;;;;;;5072730;28;20204;-62
2023/06/18 12:45:04;;;;;;;4.28;3.85;;;32.70;37.60;;;;;;5073105;28;20235;-63
2023/06/18 12:47:31;;;;;;;5.70;4.22;;;32.60;38.00;;;;;;5071689;28;20208;-64
2023/06/18 12:49:59;;;;;;;4.40;4.00;;;32.70;38.20;;;;;;5072205;28;20313;-62
2023/06/18 12:52:27;;;;;;;4.93;3.90;;;32.70;38.00;;;;;;5073589;28;20209;-62